createdAt,value
2024-04-23T00:01:40.220Z,1.90
2024-04-23T00:04:07.707Z,1.80
2024-04-23T00:06:35.087Z,1.90
2024-04-23T00:09:02.549Z,1.90
2024-04-23T00:11:31.558Z,1.90
2024-04-23T00:14:02.068Z,1.80
2024-04-23T00:16:29.601Z,1.60
2024-04-23T00:18:56.959Z,1.70
2024-04-23T00:21:24.351Z,1.80
2024-04-23T00:23:52.298Z,1.70
2024-04-23T00:26:19.729Z,1.80
2024-04-23T00:28:47.150Z,1.90
2024-04-23T00:31:14.552Z,1.90
2024-04-23T00:33:41.962Z,1.70
2024-04-23T00:36:09.438Z,1.70
2024-04-23T00:38:36.772Z,1.70
2024-04-23T00:41:04.327Z,1.40
2024-04-23T00:43:31.769Z,1.30
2024-04-23T00:46:05.524Z,1.60
2024-04-23T00:48:34.418Z,1.50
2024-04-23T00:51:02.009Z,1.60
2024-04-23T00:53:29.610Z,1.60
2024-04-23T00:55:58.104Z,1.50
2024-04-23T00:58:26.418Z,1.60
2024-04-23T01:00:54.290Z,1.60
2024-04-23T01:03:22.778Z,1.50
2024-04-23T01:05:50.391Z,1.60
2024-04-23T01:08:17.853Z,1.60
2024-04-23T01:10:45.456Z,1.60
2024-04-23T01:13:12.827Z,1.50
2024-04-23T01:15:40.992Z,1.50
2024-04-23T01:18:09.379Z,1.20
2024-04-23T01:20:40.207Z,1.00
2024-04-23T01:23:16.242Z,1.10
2024-04-23T01:25:46.565Z,1.30
2024-04-23T01:28:14.422Z,1.30
2024-04-23T01:30:42.972Z,1.30
2024-04-23T01:33:13.008Z,1.20
2024-04-23T01:35:41.486Z,1.30
2024-04-23T01:38:11.206Z,1.50
2024-04-23T01:40:39.182Z,1.40
2024-04-23T01:43:06.956Z,1.40
2024-04-23T01:45:35.391Z,1.10
2024-04-23T01:48:05.977Z,1.40
2024-04-23T01:50:33.579Z,1.30
2024-04-23T01:53:01.130Z,1.40
2024-04-23T01:55:28.716Z,1.20
2024-04-23T01:57:56.199Z,1.10
2024-04-23T02:00:25.463Z,1.10
2024-04-23T02:02:53.906Z,1.20
2024-04-23T02:05:21.668Z,1.10
2024-04-23T02:07:49.252Z,1.00
2024-04-23T02:10:16.627Z,1.00
2024-04-23T02:12:44.098Z,1.00
2024-04-23T02:15:11.545Z,1.00
2024-04-23T02:17:39.149Z,1.00
2024-04-23T02:20:08.941Z,1.00
2024-04-23T02:22:36.404Z,1.00
2024-04-23T02:25:04.576Z,1.00
2024-04-23T02:27:31.974Z,1.00
2024-04-23T02:30:02.364Z,1.10
2024-04-23T02:32:30.140Z,1.20
2024-04-23T02:34:57.732Z,1.20
2024-04-23T02:37:25.240Z,1.20
2024-04-23T02:39:52.597Z,1.20
2024-04-23T02:42:19.954Z,1.20
2024-04-23T02:44:47.265Z,1.20
2024-04-23T02:47:14.623Z,1.20
2024-04-23T02:49:42.000Z,1.30
2024-04-23T02:52:09.393Z,1.10
2024-04-23T02:54:36.734Z,1.10
2024-04-23T02:57:04.156Z,1.10
2024-04-23T02:59:31.503Z,1.10
2024-04-23T03:02:06.541Z,1.20
2024-04-23T03:04:34.563Z,1.00
2024-04-23T03:07:02.062Z,1.00
2024-04-23T03:09:29.599Z,0.90
2024-04-23T03:11:57.285Z,0.80
2024-04-23T03:14:24.669Z,0.80
2024-04-23T03:16:52.059Z,0.70
2024-04-23T03:19:19.502Z,0.80
2024-04-23T03:21:54.942Z,0.80
2024-04-23T03:24:23.060Z,0.80
2024-04-23T03:26:50.936Z,0.50
2024-04-23T03:29:19.514Z,0.70
2024-04-23T03:31:47.628Z,0.60
2024-04-23T03:34:15.155Z,0.50
2024-04-23T03:36:43.476Z,0.50
2024-04-23T03:39:11.141Z,0.30
2024-04-23T03:41:38.603Z,0.40
2024-04-23T03:44:06.059Z,0.40
2024-04-23T03:46:33.437Z,0.30
2024-04-23T03:49:00.790Z,0.50
2024-04-23T03:51:28.155Z,0.50
2024-04-23T03:53:55.521Z,0.50
2024-04-23T03:56:22.841Z,0.40
2024-04-23T03:58:50.272Z,0.50
2024-04-23T04:01:17.638Z,0.50
2024-04-23T04:04:03.825Z,0.50
2024-04-23T04:06:31.166Z,0.50
2024-04-23T04:09:01.434Z,0.50
2024-04-23T04:11:35.657Z,0.40
2024-04-23T04:14:03.958Z,0.40
2024-04-23T04:16:35.228Z,0.50
2024-04-23T04:19:03.441Z,0.40
2024-04-23T04:21:30.844Z,0.40
2024-04-23T04:23:58.202Z,0.40
2024-04-23T04:26:25.919Z,0.50
2024-04-23T04:28:54.265Z,0.50
2024-04-23T04:31:21.620Z,0.40
2024-04-23T04:33:48.968Z,0.40
2024-04-23T04:36:16.304Z,0.30
2024-04-23T04:38:43.651Z,0.50
2024-04-23T04:41:11.127Z,0.40
2024-04-23T04:43:38.575Z,0.40
2024-04-23T04:46:05.975Z,0.50
2024-04-23T04:48:33.420Z,0.50
2024-04-23T04:51:00.814Z,0.50
2024-04-23T04:53:28.211Z,0.50
2024-04-23T04:55:56.129Z,0.50
2024-04-23T04:58:23.569Z,0.50
2024-04-23T05:00:52.484Z,0.50
2024-04-23T05:03:19.886Z,0.50
2024-04-23T05:05:47.281Z,0.50
2024-04-23T05:08:14.636Z,0.40
2024-04-23T05:10:42.545Z,0.50
2024-04-23T05:13:10.416Z,0.50
2024-04-23T05:15:37.781Z,0.60
2024-04-23T05:18:05.311Z,0.60
2024-04-23T05:20:33.262Z,0.60
2024-04-23T05:23:00.744Z,0.70
2024-04-23T05:25:28.318Z,0.70
2024-04-23T05:27:55.718Z,0.60
2024-04-23T05:30:42.005Z,0.60
2024-04-23T05:33:09.530Z,0.50
2024-04-23T05:35:37.002Z,0.50
2024-04-23T05:38:04.626Z,0.60
2024-04-23T05:40:32.159Z,0.60
2024-04-23T05:42:59.539Z,0.60
2024-04-23T05:45:26.894Z,0.60
2024-04-23T05:48:32.093Z,0.60
2024-04-23T05:51:55.847Z,0.70
2024-04-23T05:55:19.919Z,0.80
2024-04-23T05:57:55.476Z,0.80
2024-04-23T06:00:23.161Z,0.90
2024-04-23T06:02:50.568Z,0.80
2024-04-23T06:05:18.369Z,0.70
2024-04-23T06:07:45.748Z,0.70
2024-04-23T06:10:13.222Z,0.80
2024-04-23T06:12:40.655Z,0.80
2024-04-23T06:15:08.172Z,0.90
2024-04-23T06:17:41.878Z,1.10
2024-04-23T06:20:14.870Z,1.10
2024-04-23T06:22:43.606Z,1.30
2024-04-23T06:25:12.200Z,1.30
2024-04-23T06:27:40.920Z,1.40
2024-04-23T06:30:12.799Z,1.40
2024-04-23T06:32:41.393Z,1.50
2024-04-23T06:35:10.335Z,1.50
2024-04-23T06:37:38.624Z,1.50
2024-04-23T06:40:09.888Z,1.50
2024-04-23T06:42:38.178Z,1.60
2024-04-23T06:45:05.997Z,1.70
2024-04-23T06:47:34.989Z,1.80
2024-04-23T06:50:03.122Z,1.90
2024-04-23T06:52:30.664Z,1.60
2024-04-23T06:54:59.370Z,1.70
2024-04-23T06:57:27.455Z,1.90
2024-04-23T06:59:54.912Z,1.90
2024-04-23T07:02:22.532Z,1.90
2024-04-23T07:04:50.225Z,2.10
2024-04-23T07:07:17.580Z,2.00
2024-04-23T07:09:44.966Z,2.10
2024-04-23T07:12:12.312Z,2.10
2024-04-23T07:14:39.612Z,2.10
2024-04-23T07:17:07.019Z,2.10
2024-04-23T07:19:34.412Z,2.20
2024-04-23T07:22:01.819Z,2.40
2024-04-23T07:24:29.148Z,2.40
2024-04-23T07:26:56.515Z,2.40
2024-04-23T07:29:23.890Z,2.60
2024-04-23T07:31:51.275Z,2.50
2024-04-23T07:34:18.636Z,2.60
2024-04-23T07:36:47.083Z,2.60
2024-04-23T07:39:15.047Z,2.70
2024-04-23T07:41:42.727Z,2.50
2024-04-23T07:44:10.407Z,2.60
2024-04-23T07:46:38.153Z,2.70
2024-04-23T07:49:05.632Z,2.80
2024-04-23T07:51:33.995Z,2.80
2024-04-23T07:54:01.646Z,2.90
2024-04-23T07:56:29.031Z,2.90
2024-04-23T07:58:56.423Z,2.90
2024-04-23T08:01:23.802Z,3.00
2024-04-23T08:03:51.194Z,3.20
2024-04-23T08:06:18.525Z,3.20
2024-04-23T08:08:45.903Z,3.20
2024-04-23T08:11:13.764Z,3.30
2024-04-23T08:13:41.451Z,3.40
2024-04-23T08:16:09.177Z,3.50
2024-04-23T08:18:36.782Z,3.30
2024-04-23T08:21:07.734Z,3.30
2024-04-23T08:23:35.211Z,3.40
2024-04-23T08:26:10.385Z,3.50
2024-04-23T08:28:37.999Z,3.60
2024-04-23T08:31:05.768Z,3.50
2024-04-23T08:33:35.524Z,3.50
2024-04-23T08:36:03.131Z,3.60
2024-04-23T08:38:31.148Z,3.60
2024-04-23T08:40:59.135Z,3.70
2024-04-23T08:43:36.021Z,3.70
2024-04-23T08:46:04.508Z,3.50
2024-04-23T08:48:34.174Z,3.60
2024-04-23T08:51:02.552Z,3.70
2024-04-23T08:53:30.234Z,3.70
2024-04-23T08:56:06.976Z,3.70
2024-04-23T08:58:37.995Z,3.70
2024-04-23T09:01:08.179Z,3.60
2024-04-23T09:03:45.732Z,3.60
2024-04-23T09:06:13.970Z,3.60
2024-04-23T09:08:42.017Z,4.00
2024-04-23T09:11:09.476Z,3.90
2024-04-23T09:13:36.964Z,4.00
2024-04-23T09:16:04.392Z,4.10
2024-04-23T09:18:33.090Z,4.20
2024-04-23T09:21:03.545Z,4.30
2024-04-23T09:23:35.003Z,3.90
2024-04-23T09:26:03.696Z,4.00
2024-04-23T09:28:36.438Z,4.00
2024-04-23T09:31:05.257Z,4.00
2024-04-23T09:33:33.730Z,4.10
2024-04-23T09:36:06.082Z,4.30
2024-04-23T09:38:43.395Z,4.50
2024-04-23T09:41:11.856Z,4.60
2024-04-23T09:43:39.709Z,4.80
2024-04-23T09:46:09.978Z,5.10
2024-04-23T09:48:41.041Z,5.00
2024-04-23T09:51:10.494Z,5.00
2024-04-23T09:53:39.242Z,5.00
2024-04-23T09:56:11.335Z,4.50
2024-04-23T09:58:38.833Z,4.40
2024-04-23T10:01:07.191Z,4.50
2024-04-23T10:03:36.811Z,4.40
2024-04-23T10:06:06.023Z,4.50
2024-04-23T10:08:51.451Z,4.60
2024-04-23T10:11:27.571Z,4.70
2024-04-23T10:14:03.664Z,4.70
2024-04-23T10:16:41.444Z,4.70
2024-04-23T10:19:12.044Z,4.90
2024-04-23T10:21:43.030Z,5.00
2024-04-23T10:24:11.433Z,4.90
2024-04-23T10:26:46.412Z,4.90
2024-04-23T10:29:15.268Z,4.90
2024-04-23T10:31:43.856Z,5.00
2024-04-23T10:34:16.683Z,5.00
2024-04-23T10:36:51.234Z,4.80
2024-04-23T10:39:23.581Z,4.90
2024-04-23T10:41:52.975Z,5.00
2024-04-23T10:44:23.056Z,5.10
2024-04-23T10:46:50.784Z,5.10
2024-04-23T10:49:18.557Z,5.10
2024-04-23T10:51:49.423Z,5.00
2024-04-23T10:54:21.636Z,5.10
2024-04-23T10:56:58.522Z,5.20
2024-04-23T10:59:34.149Z,5.10
2024-04-23T11:02:04.049Z,5.10
2024-04-23T11:04:36.119Z,5.20
2024-04-23T11:07:04.677Z,5.30
2024-04-23T11:09:47.095Z,5.40
2024-04-23T11:12:19.022Z,5.50
2024-04-23T11:14:46.820Z,5.50
2024-04-23T11:17:14.549Z,5.60
2024-04-23T11:19:49.710Z,5.50
2024-04-23T11:22:18.386Z,5.50
2024-04-23T11:24:51.875Z,5.50
2024-04-23T11:27:19.796Z,5.50
2024-04-23T11:29:49.061Z,5.40
2024-04-23T11:32:18.161Z,5.40
2024-04-23T11:34:47.715Z,5.40
2024-04-23T11:37:26.582Z,5.40
2024-04-23T11:40:01.027Z,5.40
2024-04-23T11:42:29.689Z,5.30
2024-04-23T11:45:05.330Z,5.50
2024-04-23T11:47:34.533Z,5.50
2024-04-23T11:50:06.350Z,5.40
2024-04-23T11:52:34.607Z,5.40
2024-04-23T11:55:04.813Z,5.30
2024-04-23T11:57:32.596Z,5.30
2024-04-23T12:00:02.922Z,5.50
2024-04-23T12:02:34.904Z,5.60
2024-04-23T12:05:05.129Z,5.60
2024-04-23T12:07:33.790Z,5.40
2024-04-23T12:10:05.412Z,5.60
2024-04-23T12:12:37.109Z,5.40
2024-04-23T12:15:05.917Z,5.40
2024-04-23T12:17:33.998Z,5.30
2024-04-23T12:20:01.667Z,5.30
2024-04-23T12:22:29.063Z,5.30
2024-04-23T12:24:56.542Z,5.30
2024-04-23T12:27:24.264Z,5.20
2024-04-23T12:29:52.812Z,5.20
2024-04-23T12:32:27.496Z,5.30
2024-04-23T12:34:58.412Z,5.30
2024-04-23T12:37:26.291Z,5.30
2024-04-23T12:39:56.516Z,5.30
2024-04-23T12:42:27.744Z,5.20
2024-04-23T12:44:55.110Z,5.20
2024-04-23T12:47:24.154Z,5.20
2024-04-23T12:49:52.539Z,5.20
2024-04-23T12:52:20.150Z,5.20
2024-04-23T12:54:49.924Z,5.30
2024-04-23T12:59:23.638Z,5.40
2024-04-23T13:01:51.582Z,5.40
2024-04-23T13:04:19.267Z,5.30
2024-04-23T13:06:46.639Z,5.30
2024-04-23T13:09:15.267Z,5.30
2024-04-23T13:11:42.609Z,5.40
2024-04-23T13:14:10.378Z,5.40
2024-04-23T13:16:45.958Z,5.30
2024-04-23T13:19:16.127Z,5.30
2024-04-23T13:21:43.429Z,5.60
2024-04-23T13:24:10.807Z,5.70
2024-04-23T13:26:38.156Z,5.80
2024-04-23T13:29:06.559Z,5.60
2024-04-23T13:31:33.970Z,5.60
2024-04-23T13:34:01.310Z,5.50
2024-04-23T13:36:28.625Z,5.50
2024-04-23T13:38:55.936Z,5.50
2024-04-23T13:41:23.651Z,5.60
2024-04-23T13:43:51.084Z,5.60
2024-04-23T13:46:18.397Z,5.60
2024-04-23T13:48:46.307Z,5.60
2024-04-23T13:51:13.675Z,5.70
2024-04-23T13:53:42.673Z,5.60
2024-04-23T13:56:11.688Z,5.60
2024-04-23T13:58:39.306Z,5.80
2024-04-23T14:01:10.580Z,5.70
2024-04-23T14:03:38.696Z,5.60
2024-04-23T14:06:06.755Z,5.50
2024-04-23T14:08:35.026Z,5.50
2024-04-23T14:11:09.693Z,5.60
2024-04-23T14:13:38.081Z,5.60
2024-04-23T14:16:10.836Z,5.50
2024-04-23T14:18:38.319Z,5.50
2024-04-23T14:21:06.031Z,5.60
2024-04-23T14:23:34.019Z,5.60
2024-04-23T14:26:01.588Z,5.60
2024-04-23T14:28:34.604Z,5.70
2024-04-23T14:31:05.443Z,5.50
2024-04-23T14:33:33.560Z,5.60
2024-04-23T14:36:05.457Z,5.50
2024-04-23T14:38:33.814Z,5.40
2024-04-23T14:41:05.792Z,5.50
2024-04-23T14:43:34.734Z,5.50
2024-04-23T14:46:13.460Z,5.70
2024-04-23T14:48:41.741Z,5.50
2024-04-23T14:51:10.053Z,5.50
2024-04-23T14:53:38.141Z,5.40
2024-04-23T14:56:07.488Z,5.40
2024-04-23T14:58:35.698Z,5.30
2024-04-23T15:01:10.862Z,5.40
2024-04-23T15:03:38.315Z,5.40
2024-04-23T15:06:09.714Z,5.50
2024-04-23T15:08:38.669Z,5.40
2024-04-23T15:11:07.446Z,5.80
2024-04-23T15:13:35.742Z,5.50
2024-04-23T15:16:07.802Z,5.80
2024-04-23T15:18:42.347Z,5.70
2024-04-23T15:21:12.151Z,5.60
2024-04-23T15:23:39.684Z,5.80
2024-04-23T15:26:07.542Z,5.90
2024-04-23T15:28:41.938Z,5.90
2024-04-23T15:31:09.720Z,5.70
2024-04-23T15:33:37.844Z,5.90
2024-04-23T15:36:10.474Z,5.90
2024-04-23T15:38:44.293Z,5.70
2024-04-23T15:41:14.997Z,5.50
2024-04-23T15:43:42.547Z,5.70
2024-04-23T15:46:16.964Z,5.50
2024-04-23T15:48:44.601Z,5.40
2024-04-23T15:51:12.150Z,5.30
2024-04-23T15:53:39.593Z,5.30
2024-04-23T15:56:07.774Z,5.20
2024-04-23T15:58:35.346Z,5.20
2024-04-23T16:01:09.844Z,5.20
2024-04-23T16:03:38.790Z,5.20
2024-04-23T16:06:07.143Z,5.30
2024-04-23T16:08:35.300Z,5.20
2024-04-23T16:11:06.671Z,5.10
2024-04-23T16:13:35.485Z,5.20
2024-04-23T16:16:04.600Z,5.20
2024-04-23T16:18:33.125Z,5.20
2024-04-23T16:21:04.888Z,5.20
2024-04-23T16:23:32.528Z,5.20
2024-04-23T16:26:04.961Z,5.20
2024-04-23T16:28:32.589Z,5.20
2024-04-23T16:31:07.626Z,5.10
2024-04-23T16:33:38.878Z,5.20
2024-04-23T16:36:08.510Z,5.20
2024-04-23T16:38:39.497Z,5.20
2024-04-23T16:41:08.860Z,5.20
2024-04-23T16:43:36.785Z,5.20
2024-04-23T16:46:09.797Z,5.20
2024-04-23T16:48:38.085Z,5.30
2024-04-23T16:51:09.272Z,5.20
2024-04-23T16:53:39.515Z,5.20
2024-04-23T16:56:09.457Z,5.10
2024-04-23T16:58:37.229Z,5.10
2024-04-23T17:01:08.584Z,5.10
2024-04-23T17:03:36.405Z,5.10
2024-04-23T17:06:04.227Z,5.10
2024-04-23T17:08:31.768Z,5.00
2024-04-23T17:11:03.241Z,5.00
2024-04-23T17:13:33.369Z,5.00
2024-04-23T17:16:01.087Z,5.00
2024-04-23T17:18:30.215Z,4.90
2024-04-23T17:20:57.553Z,4.90
2024-04-23T17:23:27.956Z,5.00
2024-04-23T17:25:55.327Z,4.90
2024-04-23T17:28:22.682Z,4.80
2024-04-23T17:30:50.103Z,4.90
2024-04-23T17:33:19.773Z,4.90
2024-04-23T17:35:47.160Z,5.00
2024-04-23T17:38:14.638Z,4.80
2024-04-23T17:40:42.027Z,4.90
2024-04-23T17:43:09.400Z,4.90
2024-04-23T17:45:36.775Z,4.70
2024-04-23T17:48:04.414Z,4.60
2024-04-23T17:50:32.234Z,4.70
2024-04-23T17:52:59.608Z,4.80
2024-04-23T17:55:26.994Z,4.70
2024-04-23T17:57:54.369Z,4.60
2024-04-23T18:00:23.168Z,4.60
2024-04-23T18:02:50.875Z,4.50
2024-04-23T18:05:18.276Z,4.50
2024-04-23T18:07:45.660Z,4.40
2024-04-23T18:10:13.030Z,4.40
2024-04-23T18:12:40.441Z,4.30
2024-04-23T18:15:08.078Z,4.30
2024-04-23T18:17:37.028Z,4.30
2024-04-23T18:20:04.825Z,4.20
2024-04-23T18:22:32.182Z,4.30
2024-04-23T18:24:59.510Z,4.20
2024-04-23T18:27:26.857Z,4.10
2024-04-23T18:29:54.164Z,4.20
2024-04-23T18:32:21.639Z,4.10
2024-04-23T18:34:49.217Z,4.10
2024-04-23T18:37:16.600Z,4.10
2024-04-23T18:39:44.157Z,4.10
2024-04-23T18:42:13.378Z,4.00
2024-04-23T18:44:40.777Z,4.10
2024-04-23T18:47:08.175Z,4.00
2024-04-23T18:49:35.509Z,4.00
2024-04-23T18:52:02.958Z,4.00
2024-04-23T18:54:31.413Z,4.00
2024-04-23T18:56:58.731Z,3.90
2024-04-23T18:59:26.059Z,3.90
2024-04-23T19:01:53.428Z,3.80
2024-04-23T19:04:20.803Z,3.90
2024-04-23T19:06:48.560Z,3.80
2024-04-23T19:09:15.923Z,3.80
2024-04-23T19:11:43.771Z,3.90
2024-04-23T19:14:16.338Z,4.10
2024-04-23T19:16:45.857Z,3.90
2024-04-23T19:19:13.449Z,3.80
2024-04-23T19:21:41.069Z,3.80
2024-04-23T19:24:08.518Z,3.80
2024-04-23T19:26:35.873Z,3.90
2024-04-23T19:29:03.741Z,3.80
2024-04-23T19:31:31.276Z,3.70
2024-04-23T19:34:01.135Z,3.80
2024-04-23T19:36:29.356Z,3.90
2024-04-23T19:38:56.753Z,3.90
2024-04-23T19:41:24.132Z,3.80
2024-04-23T19:43:53.817Z,3.80
2024-04-23T19:46:25.483Z,3.80
2024-04-23T19:48:56.445Z,3.70
2024-04-23T19:51:24.373Z,3.80
2024-04-23T19:53:52.155Z,3.80
2024-04-23T19:56:55.956Z,3.60
2024-04-23T19:59:24.759Z,3.80
2024-04-23T20:01:52.236Z,3.80
2024-04-23T20:04:19.723Z,3.80
2024-04-23T20:06:47.147Z,3.80
2024-04-23T20:09:16.957Z,3.80
2024-04-23T20:11:44.540Z,3.80
2024-04-23T20:14:12.157Z,3.70
2024-04-23T20:16:39.689Z,3.70
2024-04-23T20:19:07.106Z,3.70
2024-04-23T20:21:34.876Z,3.70
2024-04-23T20:24:02.223Z,3.60
2024-04-23T20:26:29.589Z,3.60
2024-04-23T20:28:58.304Z,3.50
2024-04-23T20:31:25.808Z,3.50
2024-04-23T20:33:53.221Z,3.50
2024-04-23T20:36:22.140Z,3.70
2024-04-23T20:38:49.643Z,3.50
2024-04-23T20:41:17.403Z,3.60
2024-04-23T20:43:44.910Z,3.60
2024-04-23T20:46:12.384Z,3.70
2024-04-23T20:48:39.940Z,3.70
2024-04-23T20:51:07.456Z,3.70
2024-04-23T20:53:34.794Z,3.80
2024-04-23T20:56:08.709Z,3.70
2024-04-23T20:58:36.609Z,3.80
2024-04-23T21:01:11.806Z,3.80
2024-04-23T21:03:40.345Z,3.70
2024-04-23T21:06:12.227Z,3.90
2024-04-23T21:08:40.735Z,3.80
2024-04-23T21:11:17.465Z,4.10
2024-04-23T21:13:46.197Z,4.10
2024-04-23T21:16:15.208Z,4.10
2024-04-23T21:18:43.410Z,4.30
2024-04-23T21:21:11.576Z,4.20
2024-04-23T21:23:38.942Z,4.00
2024-04-23T21:26:06.303Z,4.10
2024-04-23T21:28:34.055Z,4.10
2024-04-23T21:31:01.934Z,4.10
2024-04-23T21:33:29.656Z,4.10
2024-04-23T21:36:01.533Z,4.10
2024-04-23T21:38:28.879Z,4.10
2024-04-23T21:40:56.254Z,3.80
2024-04-23T21:43:23.687Z,3.90
2024-04-23T21:45:50.997Z,3.90
2024-04-23T21:48:18.374Z,3.90
2024-04-23T21:50:45.784Z,3.80
2024-04-23T21:53:13.217Z,3.80
2024-04-23T21:55:40.594Z,3.70
2024-04-23T21:58:07.888Z,3.70
2024-04-23T22:00:35.293Z,3.80
2024-04-23T22:03:02.724Z,4.00
2024-04-23T22:05:31.067Z,4.10
2024-04-23T22:07:58.514Z,4.40
2024-04-23T22:10:25.865Z,4.30
2024-04-23T22:12:53.174Z,4.20
2024-04-23T22:15:28.237Z,4.10
2024-04-23T22:18:03.100Z,4.10
2024-04-23T22:20:30.543Z,4.00
2024-04-23T22:22:58.109Z,4.20
2024-04-23T22:25:25.454Z,4.00
2024-04-23T22:27:52.769Z,3.90
2024-04-23T22:30:20.087Z,3.60
2024-04-23T22:32:47.662Z,3.70
2024-04-23T22:35:15.375Z,3.70
2024-04-23T22:37:42.824Z,3.60
2024-04-23T22:40:10.519Z,3.70
2024-04-23T22:42:40.415Z,3.80
2024-04-23T22:45:08.473Z,3.60
2024-04-23T22:47:35.967Z,3.80
2024-04-23T22:50:03.619Z,3.80
2024-04-23T22:52:30.990Z,3.70
2024-04-23T22:54:58.600Z,3.70
2024-04-23T22:57:25.927Z,3.70
2024-04-23T22:59:53.284Z,3.50
2024-04-23T23:02:20.712Z,3.20
2024-04-23T23:04:48.102Z,3.10
2024-04-23T23:07:15.528Z,3.20
2024-04-23T23:09:42.846Z,3.00
2024-04-23T23:12:10.264Z,2.70
2024-04-23T23:14:37.851Z,2.90
2024-04-23T23:17:05.268Z,2.60
2024-04-23T23:19:32.557Z,2.70
2024-04-23T23:21:59.897Z,2.30
2024-04-23T23:24:27.230Z,2.00
2024-04-23T23:26:54.586Z,1.90
2024-04-23T23:29:21.954Z,1.70
2024-04-23T23:31:49.259Z,1.50
2024-04-23T23:34:16.631Z,1.70
2024-04-23T23:36:43.965Z,1.40
2024-04-23T23:39:11.328Z,1.20
2024-04-23T23:41:38.642Z,1.20
2024-04-23T23:44:06.946Z,1.10
2024-04-23T23:46:34.629Z,1.20
2024-04-23T23:49:02.151Z,1.00
2024-04-23T23:51:29.471Z,0.90
2024-04-23T23:53:56.804Z,1.00
2024-04-23T23:56:24.174Z,1.00
2024-04-23T23:58:51.601Z,0.90
